createdAt,value
2018-08-09T09:29:41.890Z,23.10
2018-08-09T09:32:44.552Z,23.80
2018-08-09T09:35:14.859Z,23.80
2018-08-09T09:37:45.471Z,23.80
2018-08-09T09:40:16.808Z,23.80
2018-08-09T09:42:47.715Z,23.80
2018-08-09T09:45:18.031Z,23.80
2018-08-09T09:47:48.272Z,23.80
2018-08-09T09:50:18.505Z,23.80
2018-08-09T09:52:48.773Z,23.80
2018-08-09T09:55:19.037Z,23.80
2018-08-09T09:57:49.324Z,23.80
2018-08-09T10:00:24.611Z,23.80
2018-08-09T10:02:54.845Z,23.80
2018-08-09T10:05:25.143Z,23.80
2018-08-09T10:07:55.376Z,23.80
2018-08-09T10:10:25.635Z,23.80
2018-08-09T10:12:55.895Z,23.80
2018-08-09T10:15:26.136Z,23.80
2018-08-09T10:17:56.419Z,23.80
2018-08-09T10:20:27.436Z,23.80
2018-08-09T10:22:57.736Z,23.80
2018-08-09T10:25:28.016Z,23.80
2018-08-09T10:27:58.249Z,23.80
2018-08-09T10:30:28.833Z,23.80
2018-08-09T10:32:59.410Z,23.80
2018-08-09T10:35:29.803Z,23.70
2018-08-09T10:38:00.105Z,23.80
2018-08-09T10:40:31.477Z,23.70
2018-08-09T10:43:01.776Z,23.70
2018-08-09T10:45:32.041Z,23.80
2018-08-09T10:48:02.260Z,23.70
2018-08-09T10:50:32.532Z,23.70
2018-08-09T10:53:02.792Z,23.70
2018-08-09T10:55:33.070Z,23.80
2018-08-09T10:58:03.407Z,23.70
2018-08-09T11:00:33.684Z,23.70
2018-08-09T11:03:04.031Z,23.70
2018-08-09T11:05:34.352Z,23.70
2018-08-09T11:08:04.598Z,23.70
2018-08-09T11:10:34.919Z,23.70
2018-08-09T11:13:05.174Z,23.70
2018-08-09T11:15:35.622Z,23.70
2018-08-09T11:18:05.943Z,23.70
2018-08-09T11:20:36.293Z,23.60
2018-08-09T11:23:06.761Z,23.60
2018-08-09T11:25:37.113Z,23.50
2018-08-09T11:28:07.404Z,23.50
2018-08-09T11:30:38.091Z,23.40
2018-08-09T11:33:08.429Z,23.40
2018-08-09T11:35:38.828Z,23.30
2018-08-09T11:38:09.107Z,23.20
2018-08-09T11:40:39.407Z,23.20
2018-08-09T11:43:09.730Z,23.10
2018-08-09T11:45:40.231Z,23.10
2018-08-09T11:48:10.413Z,23.10
2018-08-09T11:50:40.739Z,23.00
2018-08-09T11:53:11.028Z,23.00
2018-08-09T11:55:41.395Z,23.00
2018-08-09T11:58:11.633Z,23.00
2018-08-09T12:00:41.940Z,22.90
2018-08-09T12:03:12.882Z,23.00
2018-08-09T12:05:43.832Z,23.00
2018-08-09T12:08:14.199Z,23.10
2018-08-09T12:10:44.525Z,23.10
2018-08-09T12:13:14.857Z,23.10
2018-08-09T12:15:45.216Z,23.10
2018-08-09T12:18:15.506Z,23.20
2018-08-09T12:20:45.850Z,23.20
2018-08-09T12:23:16.187Z,23.20
2018-08-09T12:25:47.628Z,23.30
2018-08-09T12:28:17.984Z,23.30
2018-08-09T12:30:48.623Z,23.20
2018-08-09T12:33:18.907Z,23.20
2018-08-09T12:35:49.200Z,23.20
2018-08-09T12:38:19.425Z,23.20
2018-08-09T12:40:50.696Z,23.20
2018-08-09T12:43:20.963Z,23.10
2018-08-09T12:45:51.314Z,23.10
2018-08-09T12:48:21.594Z,23.10
2018-08-09T12:50:51.959Z,23.00
2018-08-09T12:53:22.282Z,23.00
2018-08-09T12:55:52.647Z,23.00
2018-08-09T12:58:22.991Z,22.90
2018-08-09T13:00:54.402Z,22.90
2018-08-09T13:03:24.676Z,22.80
2018-08-09T13:05:55.017Z,22.90
2018-08-09T13:08:25.604Z,22.90
2018-08-09T13:10:55.914Z,23.00
2018-08-09T13:13:26.181Z,23.00
2018-08-09T13:15:56.441Z,23.10
2018-08-09T13:18:26.749Z,23.10
2018-08-09T13:20:57.063Z,23.20
2018-08-09T13:23:27.476Z,23.30
2018-08-09T13:25:57.897Z,23.30
2018-08-09T13:28:28.150Z,23.30
2018-08-09T13:30:58.824Z,23.30
2018-08-09T13:33:29.103Z,23.30
2018-08-09T13:35:59.470Z,23.20
2018-08-09T13:38:29.759Z,23.20
2018-08-09T13:41:00.090Z,23.20
2018-08-09T13:43:30.891Z,23.20
2018-08-09T13:46:01.258Z,23.10
2018-08-09T13:48:31.531Z,23.10
2018-08-09T13:51:01.873Z,23.10
2018-08-09T13:53:32.121Z,23.10
2018-08-09T13:56:02.455Z,23.20
2018-08-09T13:58:32.840Z,23.20
2018-08-09T14:01:03.158Z,23.30
2018-08-09T14:03:33.579Z,23.30
2018-08-09T14:06:03.947Z,23.30
2018-08-09T14:08:34.235Z,23.40
2018-08-09T14:11:04.503Z,23.40
2018-08-09T14:13:34.857Z,23.40
2018-08-09T14:16:05.176Z,23.40
2018-08-09T14:18:35.457Z,23.40
2018-08-09T14:21:05.737Z,23.40
2018-08-09T14:23:35.974Z,23.50
2018-08-09T14:26:07.248Z,23.50
2018-08-09T14:28:38.131Z,23.50
2018-08-09T14:31:08.801Z,23.60
2018-08-09T14:33:39.056Z,23.60
2018-08-09T14:36:09.336Z,23.60
2018-08-09T14:38:39.673Z,23.70
2018-08-09T14:41:10.171Z,23.70
2018-08-09T14:43:40.602Z,23.70
2018-08-09T14:46:10.924Z,23.70
2018-08-09T14:48:41.303Z,23.70
2018-08-09T14:51:11.652Z,23.70
2018-08-09T14:53:41.954Z,23.70
2018-08-09T14:56:12.264Z,23.70
2018-08-09T14:58:42.529Z,23.70
2018-08-09T15:01:12.992Z,23.70
2018-08-09T15:03:43.403Z,23.80
2018-08-09T15:06:13.717Z,23.80
2018-08-09T15:08:43.998Z,23.80
2018-08-09T15:11:14.407Z,23.80
2018-08-09T15:13:44.661Z,23.80
2018-08-09T15:16:15.540Z,23.90
2018-08-09T15:18:45.891Z,23.80
2018-08-09T15:21:16.185Z,23.80
2018-08-09T15:23:46.565Z,23.90
2018-08-09T15:26:16.831Z,23.90
2018-08-09T15:28:47.093Z,23.90
2018-08-09T15:31:17.788Z,23.90
2018-08-09T15:33:48.113Z,23.90
2018-08-09T15:36:18.456Z,24.00
2018-08-09T15:38:48.951Z,24.00
2018-08-09T15:41:19.420Z,24.00
2018-08-09T15:43:49.791Z,24.00
2018-08-09T15:46:20.131Z,24.00
2018-08-09T15:48:50.439Z,24.00
2018-08-09T15:51:20.736Z,24.00
2018-08-09T15:53:51.010Z,24.00
2018-08-09T15:56:21.315Z,23.90
2018-08-09T15:58:51.576Z,23.90
2018-08-09T16:01:21.904Z,23.80
2018-08-09T16:03:52.257Z,23.80
2018-08-09T16:06:22.653Z,23.70
2018-08-09T16:08:53.049Z,23.60
2018-08-09T16:11:23.385Z,23.50
2018-08-09T16:13:53.720Z,23.50
2018-08-09T16:16:24.128Z,23.40
2018-08-09T16:18:54.433Z,23.40
2018-08-09T16:21:24.760Z,23.40
2018-08-09T16:23:55.034Z,23.40
2018-08-09T16:26:25.359Z,23.50
2018-08-09T16:28:55.655Z,23.50
2018-08-09T16:31:26.271Z,23.60
2018-08-09T16:33:56.639Z,23.70
2018-08-09T16:36:26.975Z,23.70
2018-08-09T16:38:57.327Z,23.70
2018-08-09T16:41:27.704Z,23.80
2018-08-09T16:43:58.112Z,23.80
2018-08-09T16:46:28.483Z,23.80
2018-08-09T16:48:58.808Z,23.90
2018-08-09T16:51:29.113Z,23.90
2018-08-09T16:53:59.411Z,23.90
2018-08-09T16:56:29.785Z,24.00
2018-08-09T16:59:00.081Z,24.00
2018-08-09T17:01:30.385Z,24.00
2018-08-09T17:04:00.671Z,24.00
2018-08-09T17:06:30.953Z,24.00
2018-08-09T17:09:01.221Z,24.10
2018-08-09T17:11:31.712Z,24.10
2018-08-09T17:14:01.956Z,24.10
2018-08-09T17:16:32.262Z,24.10
2018-08-09T17:19:02.590Z,24.10
2018-08-09T17:21:32.909Z,24.10
2018-08-09T17:24:03.217Z,24.20
2018-08-09T17:26:33.732Z,24.20
2018-08-09T17:29:04.044Z,24.20
2018-08-09T17:31:34.688Z,24.20
2018-08-09T17:34:05.583Z,24.20
2018-08-09T17:36:35.937Z,24.20
2018-08-09T17:39:10.982Z,24.20
2018-08-09T17:41:41.300Z,24.30
2018-08-09T17:44:13.165Z,24.30
2018-08-09T17:46:43.594Z,24.30
2018-08-09T17:49:14.871Z,24.30
2018-08-09T17:51:45.280Z,24.30
2018-08-09T17:54:15.623Z,24.30
2018-08-09T17:56:45.952Z,24.40
2018-08-09T17:59:16.280Z,24.40
2018-08-09T18:01:46.558Z,24.40
2018-08-09T18:04:16.865Z,24.40
2018-08-09T18:06:47.260Z,24.40
2018-08-09T18:09:17.584Z,24.40
2018-08-09T18:11:47.960Z,24.40
2018-08-09T18:14:18.228Z,24.40
2018-08-09T18:16:48.469Z,24.40
2018-08-09T18:19:18.739Z,24.40
2018-08-09T18:21:49.097Z,24.40
2018-08-09T18:24:20.327Z,24.50
2018-08-09T18:26:50.675Z,24.50
2018-08-09T18:29:20.928Z,24.50
2018-08-09T18:31:51.550Z,24.50
2018-08-09T18:34:21.820Z,24.50
2018-08-09T18:36:52.096Z,24.50
2018-08-09T18:39:22.392Z,24.40
2018-08-09T18:41:52.675Z,24.40
2018-08-09T18:44:22.961Z,24.30
2018-08-09T18:46:53.335Z,24.20
2018-08-09T18:49:23.673Z,24.10
2018-08-09T18:51:55.050Z,24.00
2018-08-09T18:54:25.444Z,24.00
2018-08-09T18:56:55.741Z,23.90
2018-08-09T18:59:25.993Z,23.80
2018-08-09T19:01:56.281Z,23.80
2018-08-09T19:04:26.941Z,23.80
2018-08-09T19:06:57.559Z,23.70
2018-08-09T19:09:27.817Z,23.70
2018-08-09T19:12:01.096Z,23.60
2018-08-09T19:14:33.306Z,23.70
2018-08-09T19:17:03.593Z,23.70
2018-08-09T19:19:33.837Z,23.80
2018-08-09T19:22:04.280Z,23.90
2018-08-09T19:24:34.572Z,23.90
2018-08-09T19:27:04.923Z,23.90
2018-08-09T19:29:35.291Z,24.00
2018-08-09T19:32:07.557Z,23.90
2018-08-09T19:34:37.899Z,24.00
2018-08-09T19:37:08.313Z,24.00
2018-08-09T19:39:38.601Z,24.00
2018-08-09T19:42:08.921Z,24.00
2018-08-09T19:44:39.203Z,24.10
2018-08-09T19:47:09.563Z,24.10
2018-08-09T19:49:39.865Z,24.10
2018-08-09T19:52:10.782Z,24.20
2018-08-09T19:54:41.097Z,24.20
2018-08-09T19:57:11.379Z,24.20
2018-08-09T19:59:41.647Z,24.20
2018-08-09T20:02:11.945Z,24.30
2018-08-09T20:04:42.295Z,24.30
2018-08-09T20:07:12.687Z,24.30
2018-08-09T20:09:43.207Z,24.40
2018-08-09T20:12:13.536Z,24.40
2018-08-09T20:14:44.749Z,24.40
2018-08-09T20:17:15.106Z,24.40
2018-08-09T20:19:45.455Z,24.40
2018-08-09T20:22:18.799Z,24.40
2018-08-09T20:24:49.049Z,24.40
2018-08-09T20:27:19.376Z,24.50
2018-08-09T20:29:49.662Z,24.50
2018-08-09T20:32:20.351Z,24.50
2018-08-09T20:34:50.702Z,24.50
2018-08-09T20:37:20.991Z,24.50
2018-08-09T20:39:51.280Z,24.50
2018-08-09T20:42:21.648Z,24.50
2018-08-09T20:44:52.000Z,24.50
2018-08-09T20:47:23.109Z,24.60
2018-08-09T20:49:53.416Z,24.60
2018-08-09T20:52:23.782Z,24.60
2018-08-09T20:54:54.064Z,24.60
2018-08-09T20:57:24.394Z,24.60
2018-08-09T20:59:54.672Z,24.60
2018-08-09T21:02:24.999Z,24.70
2018-08-09T21:04:55.254Z,24.70
2018-08-09T21:07:25.508Z,24.70
2018-08-09T21:09:55.815Z,24.70
2018-08-09T21:12:26.058Z,24.70
2018-08-09T21:14:56.358Z,24.70
2018-08-09T21:17:26.624Z,24.70
2018-08-09T21:19:56.857Z,24.70
2018-08-09T21:22:27.133Z,24.70
2018-08-09T21:24:57.569Z,24.70
2018-08-09T21:27:27.873Z,24.70
2018-08-09T21:29:58.152Z,24.70
2018-08-09T21:32:28.768Z,24.70
2018-08-09T21:34:59.101Z,24.80
2018-08-09T21:37:29.356Z,24.80
2018-08-09T21:39:59.587Z,24.80
2018-08-09T21:42:29.899Z,24.80
2018-08-09T21:45:00.178Z,24.80
2018-08-09T21:47:30.462Z,24.80
2018-08-09T21:50:00.729Z,24.80
2018-08-09T21:52:30.982Z,24.80
2018-08-09T21:55:02.197Z,24.80
2018-08-09T21:57:32.461Z,24.80
2018-08-09T22:00:02.714Z,24.80
2018-08-09T22:02:33.102Z,24.80
2018-08-09T22:05:08.377Z,24.80
2018-08-09T22:07:43.574Z,24.80
2018-08-09T22:10:18.760Z,24.80
2018-08-09T22:12:53.895Z,24.80
2018-08-09T22:15:29.068Z,24.80
2018-08-09T22:18:04.259Z,24.90
2018-08-09T22:20:39.427Z,24.90
2018-08-09T22:23:09.688Z,24.90
2018-08-09T22:25:39.943Z,24.90
2018-08-09T22:28:10.263Z,24.90
2018-08-09T22:30:40.515Z,24.90
2018-08-09T22:33:11.066Z,24.90
2018-08-09T22:35:41.420Z,24.90
2018-08-09T22:38:11.784Z,24.90
2018-08-09T22:40:42.094Z,24.90
2018-08-09T22:43:12.671Z,24.90
2018-08-09T22:45:42.905Z,24.90
2018-08-09T22:48:13.213Z,24.90
2018-08-09T22:50:44.095Z,24.90
2018-08-09T22:53:14.807Z,24.90
2018-08-09T22:55:45.248Z,24.90
2018-08-09T22:58:15.755Z,24.90
2018-08-09T23:00:46.950Z,24.90
2018-08-09T23:03:17.212Z,24.90
2018-08-09T23:05:47.508Z,24.90
2018-08-09T23:08:17.839Z,24.90
2018-08-09T23:10:48.155Z,24.90
2018-08-09T23:13:18.397Z,24.90
2018-08-09T23:15:48.664Z,24.90
2018-08-09T23:18:18.932Z,24.90
2018-08-09T23:20:49.221Z,24.90
2018-08-09T23:23:19.511Z,24.90
2018-08-09T23:25:49.786Z,24.90
2018-08-09T23:28:20.010Z,24.90
2018-08-09T23:30:50.270Z,24.90
2018-08-09T23:33:24.753Z,24.90
2018-08-09T23:35:55.317Z,24.90
2018-08-09T23:38:25.623Z,24.90
2018-08-09T23:40:55.915Z,24.90
2018-08-09T23:43:26.234Z,24.90
2018-08-09T23:45:56.567Z,24.90
2018-08-09T23:48:26.889Z,24.90
2018-08-09T23:50:57.149Z,24.90
2018-08-09T23:53:27.441Z,24.90
2018-08-09T23:55:57.754Z,24.90
2018-08-09T23:58:28.017Z,24.90
